Terminal Aerodrome Forecast
Issued by NWS Jackson, KY

Home | Current Version | Previous Version | Text Only | Print | Product List | Glossary On
Versions: 1 2 3 4 5 6 7 8 9 10 11 12 13
872
FTUS43 KJKL 081416 CCB
TAFLOZ
TAF COR
KLOZ 081416Z 0814/0912 25006KT P6SM BKN015 OVC020
      TEMPO 0814/0816 27006KT 6SM -SHRA BKN025 OVC050
     FM081600 27007KT 3SM -SHRA VCTS BKN035CB
     FM082300 27006KT 3SM -SN BKN015
     FM090300 27005KT 2SM -SN OVC007=

USA.gov is the U.S. government's official web portal to all federal, state and local government web resources and services.